Time;durP1;ratioP1;P1;durP2;ratioP2;P2;SDS_P1;SDS_P2;PMS_P1;PMS_P2;Temp;Humidity;BMP_temperature;BMP_pressure;BME280_temperature;BME280_humidity;BME280_pressure;Samples;Min_cycle;Max_cycle;Signal;HPM_P1;HPM_P2
2023/10/09 00:01:13;;;;;;;12.50;5.05;;;17.60;99.90;;;;;;5049336;28;20057;-57
2023/10/09 00:03:41;;;;;;;6.82;4.13;;;17.60;99.90;;;;;;5069971;28;20052;-57
2023/10/09 00:06:10;;;;;;;10.45;4.78;;;17.60;99.90;;;;;;5060011;28;20138;-58
2023/10/09 00:08:39;;;;;;;12.02;4.95;;;17.50;99.90;;;;;;5068595;28;20464;-57
2023/10/09 00:11:21;;;;;;;13.43;6.13;;;17.60;99.90;;;;;;5065322;28;20388;-57
2023/10/09 00:13:57;;;;;;;10.10;5.20;;;17.60;99.90;;;;;;5066494;28;20048;-57
2023/10/09 00:16:35;;;;;;;11.20;4.78;;;17.50;99.90;;;;;;5065428;28;20274;-57
2023/10/09 00:19:14;;;;;;;9.63;6.38;;;17.60;99.90;;;;;;5035013;28;20098;-57
2023/10/09 00:21:41;;;;;;;8.02;4.50;;;17.50;99.90;;;;;;5059423;28;20053;-56
2023/10/09 00:24:13;;;;;;;10.38;4.63;;;17.60;99.90;;;;;;5051038;28;20049;-57
2023/10/09 00:26:44;;;;;;;10.25;5.57;;;17.60;99.90;;;;;;5036932;28;20055;-57
2023/10/09 00:29:21;;;;;;;9.20;4.78;;;17.50;99.90;;;;;;5054785;28;20420;-56
2023/10/09 00:32:13;;;;;;;9.02;4.60;;;17.50;99.90;;;;;;5053755;28;20049;-57
2023/10/09 00:34:40;;;;;;;10.15;5.38;;;17.50;99.90;;;;;;5069267;28;20084;-57
2023/10/09 00:37:16;;;;;;;11.45;5.45;;;17.50;99.90;;;;;;5065211;28;20097;-57
2023/10/09 00:39:43;;;;;;;11.02;5.15;;;17.40;99.90;;;;;;5033771;28;20045;-56
2023/10/09 00:42:27;;;;;;;10.57;5.32;;;17.40;99.90;;;;;;5040553;28;20430;-56
2023/10/09 00:44:55;;;;;;;10.60;5.60;;;17.40;99.90;;;;;;5034876;28;20473;-56
2023/10/09 00:47:26;;;;;;;7.70;4.80;;;17.50;99.90;;;;;;5053028;28;20056;-57
2023/10/09 00:50:00;;;;;;;10.52;5.07;;;17.50;99.90;;;;;;4681522;28;9999867;-56
2023/10/09 00:52:32;;;;;;;7.97;4.65;;;17.50;99.90;;;;;;5032361;28;20087;-56
2023/10/09 00:55:04;;;;;;;11.23;5.82;;;17.50;99.90;;;;;;5065773;28;20063;-57
2023/10/09 00:57:34;;;;;;;9.63;5.80;;;17.40;99.90;;;;;;5030999;28;20040;-57
2023/10/09 01:00:00;;;;;;;6.15;4.75;;;17.50;99.90;;;;;;5036295;28;20504;-57
2023/10/09 01:02:35;;;;;;;6.25;4.53;;;17.50;99.90;;;;;;5051921;28;20419;-57
2023/10/09 01:05:19;;;;;;;9.57;4.97;;;17.50;99.90;;;;;;5042843;28;20037;-57
2023/10/09 01:07:47;;;;;;;10.63;4.97;;;17.50;99.90;;;;;;5053133;28;20048;-57
2023/10/09 01:10:16;;;;;;;11.85;6.28;;;17.50;99.90;;;;;;5042294;28;20072;-57
2023/10/09 01:12:44;;;;;;;7.93;4.53;;;17.50;99.90;;;;;;5058022;28;20049;-56
2023/10/09 01:15:54;;;;;;;10.70;4.68;;;17.50;99.90;;;;;;5052957;28;20041;-57
2023/10/09 01:18:02;;;;;;;9.27;5.32;;;17.40;99.90;;;;;;5042008;28;20037;-56
2023/10/09 01:20:32;;;;;;;10.98;5.07;;;17.30;99.90;;;;;;5044449;28;20067;-57
2023/10/09 01:23:02;;;;;;;9.93;4.75;;;17.20;99.90;;;;;;5064247;28;20045;-57
2023/10/09 01:25:41;;;;;;;8.40;4.30;;;17.20;99.90;;;;;;5042602;28;20495;-61
2023/10/09 01:28:08;;;;;;;8.52;4.55;;;17.10;99.90;;;;;;5063620;28;20041;-57
2023/10/09 01:30:41;;;;;;;8.30;4.22;;;17.10;99.90;;;;;;5056952;28;20091;-58
2023/10/09 01:36:05;;;;;;;9.25;3.83;;;17.00;99.90;;;;;;5032703;28;20049;-56
2023/10/09 01:38:40;;;;;;;7.03;3.75;;;17.00;99.90;;;;;;5052131;28;20091;-56
2023/10/09 01:41:19;;;;;;;8.65;4.35;;;17.00;99.90;;;;;;5041898;28;20044;-60
2023/10/09 01:43:50;;;;;;;9.35;5.35;;;17.00;99.90;;;;;;5052757;28;20040;-55
2023/10/09 01:46:19;;;;;;;7.53;4.47;;;16.90;99.90;;;;;;5044510;28;20052;-56
2023/10/09 01:48:46;;;;;;;10.43;4.43;;;16.80;99.90;;;;;;5051617;28;20075;-57
2023/10/09 01:51:17;;;;;;;8.82;4.90;;;16.90;99.90;;;;;;5059492;28;20044;-56
2023/10/09 01:53:47;;;;;;;6.40;4.05;;;16.80;99.90;;;;;;5064229;28;20049;-57
2023/10/09 01:56:17;;;;;;;8.30;4.28;;;16.70;99.90;;;;;;5058437;28;20106;-57
2023/10/09 01:58:46;;;;;;;6.97;4.28;;;16.70;99.90;;;;;;5050225;28;20120;-57
2023/10/09 02:01:14;;;;;;;11.20;4.90;;;16.60;99.90;;;;;;5056838;28;20063;-56
2023/10/09 02:03:42;;;;;;;10.20;4.55;;;16.60;99.90;;;;;;5066414;28;20553;-56
2023/10/09 02:06:26;;;;;;;6.22;4.65;;;16.60;99.90;;;;;;5058987;28;20144;-58
2023/10/09 02:08:53;;;;;;;10.07;4.37;;;16.60;99.90;;;;;;5048741;28;20432;-57
2023/10/09 02:11:36;;;;;;;14.43;4.57;;;16.70;99.90;;;;;;5050456;28;20058;-58
2023/10/09 02:14:15;;;;;;;8.35;4.78;;;16.70;99.90;;;;;;5049095;28;20102;-57
2023/10/09 02:16:42;;;;;;;12.50;4.97;;;16.70;99.90;;;;;;5056552;28;20049;-56
2023/10/09 02:19:28;;;;;;;7.53;3.58;;;16.60;99.90;;;;;;5048979;28;20463;-57
2023/10/09 02:21:56;;;;;;;9.85;4.15;;;16.60;99.90;;;;;;5056033;28;20450;-57
2023/10/09 02:24:49;;;;;;;9.48;4.53;;;16.70;99.90;;;;;;5065937;28;20117;-56
2023/10/09 02:27:19;;;;;;;10.07;4.85;;;16.60;99.90;;;;;;5047328;28;20068;-56
2023/10/09 02:29:47;;;;;;;8.23;4.22;;;16.60;99.90;;;;;;5064041;28;20052;-56
2023/10/09 02:32:25;;;;;;;7.95;4.28;;;16.50;99.90;;;;;;5058814;28;20110;-56
2023/10/09 02:34:53;;;;;;;8.48;3.78;;;16.50;99.90;;;;;;5048540;28;20068;-59
2023/10/09 02:37:25;;;;;;;7.47;4.43;;;16.40;99.90;;;;;;5059009;28;20049;-55
2023/10/09 02:39:52;;;;;;;7.15;4.10;;;16.30;99.90;;;;;;5048361;28;20045;-57
2023/10/09 02:42:23;;;;;;;8.60;3.50;;;16.20;99.90;;;;;;5054423;28;20052;-60
2023/10/09 02:44:51;;;;;;;5.28;3.70;;;16.20;99.90;;;;;;5047845;28;20045;-57
2023/10/09 02:47:29;;;;;;;8.15;3.78;;;16.10;99.90;;;;;;5059024;28;20495;-56
2023/10/09 02:50:44;;;;;;;8.05;4.30;;;16.20;99.90;;;;;;5070899;28;20044;-56
2023/10/09 02:52:43;;;;;;;8.73;3.75;;;16.20;99.90;;;;;;5048775;28;20110;-57
2023/10/09 02:55:23;;;;;;;9.80;3.92;;;16.20;99.90;;;;;;5051294;28;20048;-57
2023/10/09 02:57:55;;;;;;;6.93;4.00;;;16.20;99.90;;;;;;5059892;28;20102;-55
2023/10/09 03:00:29;;;;;;;8.02;3.65;;;16.20;99.90;;;;;;5050985;28;20099;-56
2023/10/09 03:02:58;;;;;;;11.75;4.15;;;16.20;99.90;;;;;;5054668;28;20449;-55
2023/10/09 03:05:28;;;;;;;6.00;3.55;;;16.20;99.90;;;;;;5071030;28;20048;-57
2023/10/09 03:07:55;;;;;;;6.90;4.00;;;16.20;99.90;;;;;;5057804;28;20037;-56
2023/10/09 03:10:22;;;;;;;6.93;3.70;;;16.20;99.90;;;;;;5069825;28;20049;-56
2023/10/09 03:12:52;;;;;;;8.32;3.28;;;16.20;99.90;;;;;;5038720;28;20048;-56
2023/10/09 03:15:20;;;;;;;7.30;3.85;;;16.10;99.90;;;;;;5053978;28;20137;-56
2023/10/09 03:17:50;;;;;;;9.75;3.75;;;16.10;99.90;;;;;;5054628;28;20134;-56
2023/10/09 03:20:19;;;;;;;5.70;3.40;;;16.10;99.90;;;;;;5050438;28;20045;-55
2023/10/09 03:22:48;;;;;;;8.27;3.88;;;16.00;99.90;;;;;;5054912;28;20127;-57
2023/10/09 03:25:16;;;;;;;9.15;4.18;;;16.00;99.90;;;;;;5069947;28;20072;-57
2023/10/09 03:27:48;;;;;;;6.78;3.55;;;16.00;99.90;;;;;;5049107;28;20045;-57
2023/10/09 03:30:17;;;;;;;8.52;3.35;;;16.00;99.90;;;;;;5068142;28;20075;-56
2023/10/09 03:32:51;;;;;;;6.80;4.18;;;15.90;99.90;;;;;;5065905;28;20157;-56
2023/10/09 03:35:24;;;;;;;7.95;4.25;;;15.90;99.90;;;;;;5065768;28;20044;-56
2023/10/09 03:38:00;;;;;;;7.57;4.75;;;15.90;99.90;;;;;;5066868;28;20127;-56
2023/10/09 03:40:27;;;;;;;9.38;4.00;;;15.90;99.90;;;;;;5053598;28;20553;-57
2023/10/09 03:42:54;;;;;;;7.25;3.75;;;15.80;99.90;;;;;;5054232;28;20037;-56
2023/10/09 03:45:28;;;;;;;11.93;4.10;;;15.90;99.90;;;;;;5064585;28;20052;-57
2023/10/09 03:48:02;;;;;;;9.70;4.05;;;15.80;99.90;;;;;;5065750;28;20210;-56
2023/10/09 03:50:35;;;;;;;11.15;4.28;;;15.80;99.90;;;;;;5040297;28;20503;-56
2023/10/09 03:53:06;;;;;;;6.53;3.50;;;15.80;99.90;;;;;;5054701;28;20102;-55
2023/10/09 03:55:35;;;;;;;8.63;4.32;;;15.80;99.90;;;;;;5039816;28;20077;-56
2023/10/09 03:58:02;;;;;;;7.45;4.45;;;15.70;99.90;;;;;;5053763;28;20477;-56
2023/10/09 04:00:29;;;;;;;7.78;3.72;;;15.70;99.90;;;;;;5039329;28;20083;-57
2023/10/09 04:02:57;;;;;;;13.48;4.55;;;15.80;99.90;;;;;;5053341;28;20506;-56
2023/10/09 04:05:25;;;;;;;6.63;3.88;;;15.80;99.90;;;;;;5051041;28;20142;-55
2023/10/09 04:07:53;;;;;;;7.32;3.75;;;15.90;99.90;;;;;;5051376;28;20098;-58
2023/10/09 04:10:32;;;;;;;9.32;4.50;;;15.90;99.90;;;;;;5061017;28;20236;-57
2023/10/09 04:13:00;;;;;;;7.63;3.92;;;15.90;99.90;;;;;;5050905;28;20216;-56
2023/10/09 04:15:30;;;;;;;5.80;3.20;;;15.90;99.90;;;;;;5060566;28;20132;-56
2023/10/09 04:17:57;;;;;;;14.40;4.63;;;16.00;99.90;;;;;;5050244;28;20147;-56
2023/10/09 04:22:51;;;;;;;12.45;4.28;;;16.00;99.90;;;;;;5069900;28;20052;-56
2023/10/09 04:25:25;;;;;;;7.28;3.67;;;16.00;99.90;;;;;;5063218;28;20047;-57
2023/10/09 04:30:42;;;;;;;8.40;3.47;;;16.00;99.90;;;;;;5056025;28;19920;-57
2023/10/09 04:33:29;;;;;;;13.25;4.75;;;16.00;99.90;;;;;;5069278;28;20092;-56
2023/10/09 04:36:22;;;;;;;9.35;4.28;;;16.00;99.90;;;;;;5057054;28;20071;-57
2023/10/09 04:41:51;;;;;;;6.53;3.75;;;16.00;99.90;;;;;;5058536;28;20308;-58
2023/10/09 04:44:19;;;;;;;5.15;3.75;;;15.90;99.90;;;;;;5067182;28;20040;-58
2023/10/09 04:49:49;;;;;;;9.65;3.85;;;15.80;99.90;;;;;;5064377;28;20041;-59
2023/10/09 04:55:18;;;;;;;9.00;3.72;;;15.70;99.90;;;;;;5051332;28;20036;-57
2023/10/09 04:57:46;;;;;;;13.20;6.28;;;15.70;99.90;;;;;;5054820;28;20049;-57
2023/10/09 05:03:02;;;;;;;10.05;4.43;;;15.70;99.90;;;;;;5062595;28;20060;-57
2023/10/09 05:08:19;;;;;;;8.38;3.75;;;15.70;99.90;;;;;;5062898;28;20051;-57
2023/10/09 05:16:28;;;;;;;8.38;3.90;;;15.60;99.90;;;;;;5055731;28;20051;-57
2023/10/09 05:18:56;;;;;;;9.68;3.92;;;15.60;99.90;;;;;;5040098;28;20404;-56
2023/10/09 05:29:34;;;;;;;7.68;4.63;;;15.60;99.90;;;;;;5064849;28;20693;-57
2023/10/09 05:35:15;;;;;;;11.05;3.92;;;15.50;99.90;;;;;;5049347;28;20048;-56
2023/10/09 05:37:24;;;;;;;8.88;4.75;;;15.40;99.90;;;;;;5050617;28;20047;-56
2023/10/09 05:50:35;;;;;;;13.37;4.73;;;15.20;99.90;;;;;;5047620;28;20052;-57
2023/10/09 05:57:19;;;;;;;12.00;5.05;;;15.10;99.90;;;;;;5044750;28;20622;-56
2023/10/09 06:04:53;;;;;;;12.45;5.13;;;15.00;99.90;;;;;;5052268;28;20045;-56
2023/10/09 06:06:56;;;;;;;11.18;4.78;;;14.90;99.90;;;;;;5031620;28;20041;-57
2023/10/09 06:09:49;;;;;;;9.82;4.72;;;14.90;99.90;;;;;;5047751;28;20044;-56
2023/10/09 06:15:18;;;;;;;8.65;4.65;;;14.80;99.90;;;;;;5049068;28;20044;-57
2023/10/09 06:17:50;;;;;;;11.88;5.55;;;14.80;99.90;;;;;;5039733;28;20048;-56
2023/10/09 06:23:35;;;;;;;12.23;5.50;;;14.80;99.90;;;;;;5062087;28;20341;-59
2023/10/09 06:26:23;;;;;;;10.07;5.32;;;14.80;99.90;;;;;;5051390;28;20045;-56
2023/10/09 06:29:13;;;;;;;16.50;5.63;;;14.80;99.90;;;;;;5055187;28;20101;-57
2023/10/09 06:34:32;;;;;;;10.25;5.30;;;14.90;99.90;;;;;;5041605;28;20072;-57
2023/10/09 06:37:07;;;;;;;12.25;4.82;;;14.80;99.90;;;;;;5023050;28;20045;-57
2023/10/09 06:45:14;;;;;;;8.98;4.72;;;14.90;99.90;;;;;;5046862;28;20128;-57
2023/10/09 06:47:42;;;;;;;12.15;4.90;;;15.00;99.90;;;;;;5024092;28;20099;-57
2023/10/09 06:50:24;;;;;;;16.90;6.35;;;15.00;99.90;;;;;;4684836;28;9999763;-56
2023/10/09 06:53:18;;;;;;;11.48;4.93;;;15.00;99.90;;;;;;5041113;28;20057;-53
2023/10/09 06:55:52;;;;;;;13.52;5.80;;;15.00;99.90;;;;;;5047741;28;20049;-57
2023/10/09 06:58:28;;;;;;;9.82;5.97;;;15.10;99.90;;;;;;5063409;28;20087;-56
2023/10/09 07:03:36;;;;;;;13.27;5.35;;;15.20;99.90;;;;;;5030848;28;20504;-57
2023/10/09 07:06:09;;;;;;;20.27;7.18;;;15.20;99.90;;;;;;5047468;28;20033;-56
2023/10/09 07:08:37;;;;;;;14.90;5.22;;;15.30;99.90;;;;;;5010295;28;20143;-56
2023/10/09 07:11:21;;;;;;;9.65;5.47;;;15.30;99.90;;;;;;5046408;28;20044;-56
2023/10/09 07:13:53;;;;;;;12.40;6.10;;;15.40;99.90;;;;;;5042991;28;20053;-56
2023/10/09 07:16:37;;;;;;;13.85;5.50;;;15.40;99.90;;;;;;5039975;28;20111;-57
2023/10/09 07:21:54;;;;;;;17.63;6.15;;;15.70;99.90;;;;;;5041674;28;20049;-54
2023/10/09 07:24:37;;;;;;;11.00;5.07;;;15.80;99.90;;;;;;5028077;28;20091;-55
2023/10/09 07:27:09;;;;;;;8.43;5.13;;;15.90;99.90;;;;;;5030405;28;20053;-56
2023/10/09 07:29:47;;;;;;;11.18;5.28;;;16.10;99.90;;;;;;5027086;28;20044;-55
2023/10/09 07:32:22;;;;;;;12.68;5.32;;;16.20;99.90;;;;;;5053672;28;20625;-56
2023/10/09 07:34:52;;;;;;;10.25;6.38;;;16.30;99.90;;;;;;5063687;28;20177;-57
2023/10/09 07:43:45;;;;;;;8.75;4.50;;;16.70;99.90;;;;;;5037725;28;20072;-57
2023/10/09 07:46:51;;;;;;;12.75;4.90;;;16.80;99.90;;;;;;5035649;28;20048;-55
2023/10/09 07:49:25;;;;;;;12.00;4.43;;;16.90;99.90;;;;;;5048933;28;20499;-55
2023/10/09 07:51:55;;;;;;;7.45;4.07;;;17.00;99.90;;;;;;5051379;28;20144;-56
2023/10/09 07:57:25;;;;;;;12.23;4.70;;;17.20;99.90;;;;;;5026799;28;20081;-56
2023/10/09 08:00:00;;;;;;;10.70;4.63;;;17.20;99.90;;;;;;5036871;28;20053;-55
2023/10/09 08:02:34;;;;;;;7.90;4.68;;;17.20;99.90;;;;;;5021032;28;20065;-56
2023/10/09 08:05:06;;;;;;;10.48;4.28;;;17.20;99.90;;;;;;5049158;28;20163;-56
2023/10/09 08:07:37;;;;;;;11.30;4.97;;;17.20;99.90;;;;;;5023518;28;20514;-56
2023/10/09 08:13:05;;;;;;;10.73;4.80;;;17.30;99.90;;;;;;5049207;28;20092;-57
2023/10/09 08:15:51;;;;;;;10.82;4.47;;;17.30;99.90;;;;;;5037800;28;20045;-56
2023/10/09 08:18:31;;;;;;;8.63;3.97;;;17.30;99.90;;;;;;5039505;28;20416;-56
2023/10/09 08:23:48;;;;;;;13.07;5.30;;;17.30;99.90;;;;;;5048949;28;20288;-56
2023/10/09 08:26:28;;;;;;;15.45;5.07;;;17.30;99.90;;;;;;5036487;28;20052;-56
2023/10/09 08:29:15;;;;;;;12.40;5.55;;;17.20;99.90;;;;;;5042473;28;20045;-56
2023/10/09 08:31:45;;;;;;;10.00;5.15;;;17.30;99.90;;;;;;5046405;28;20045;-53
2023/10/09 08:34:24;;;;;;;8.20;5.05;;;17.20;99.90;;;;;;5044496;28;20618;-55
2023/10/09 08:37:13;;;;;;;8.38;4.43;;;17.30;99.90;;;;;;5049633;28;20624;-56
2023/10/09 08:39:42;;;;;;;11.15;5.75;;;17.20;99.90;;;;;;5047546;28;20087;-58
2023/10/09 08:42:09;;;;;;;13.50;5.03;;;17.20;99.90;;;;;;5041825;28;20048;-55
2023/10/09 08:44:36;;;;;;;8.82;4.80;;;17.30;99.90;;;;;;5032076;28;20094;-56
2023/10/09 08:47:03;;;;;;;16.10;5.13;;;17.50;99.90;;;;;;5046862;28;20045;-56
2023/10/09 08:49:31;;;;;;;7.57;4.90;;;17.50;99.90;;;;;;5043212;28;20139;-54
2023/10/09 08:52:03;;;;;;;10.40;4.50;;;17.70;99.90;;;;;;5024707;28;20107;-56
2023/10/09 08:54:33;;;;;;;16.92;4.80;;;17.70;99.90;;;;;;5031625;28;20076;-54
2023/10/09 08:57:01;;;;;;;7.70;5.07;;;17.80;99.90;;;;;;5012014;28;20054;-55
2023/10/09 08:59:27;;;;;;;8.70;4.85;;;17.90;99.90;;;;;;5047474;28;20579;-55
2023/10/09 09:01:58;;;;;;;15.35;5.55;;;18.00;99.90;;;;;;5039658;28;20052;-55
2023/10/09 09:04:38;;;;;;;8.98;4.00;;;17.90;99.90;;;;;;5051298;28;20671;-56
2023/10/09 09:07:25;;;;;;;10.95;4.88;;;17.80;99.90;;;;;;5035876;28;20390;-55
2023/10/09 09:10:03;;;;;;;8.73;4.47;;;17.80;99.90;;;;;;5043841;28;20407;-55
2023/10/09 09:12:37;;;;;;;9.55;4.82;;;17.80;99.90;;;;;;5043664;28;20049;-54
2023/10/09 09:15:09;;;;;;;11.80;4.78;;;17.90;99.90;;;;;;5032255;28;20045;-55
2023/10/09 09:17:38;;;;;;;8.90;4.95;;;17.90;99.90;;;;;;5024103;28;20065;-56
2023/10/09 09:20:30;;;;;;;14.18;4.78;;;17.90;99.90;;;;;;5052294;28;20103;-55
2023/10/09 09:22:57;;;;;;;11.75;4.68;;;17.90;99.90;;;;;;5042550;28;20102;-56
2023/10/09 09:25:31;;;;;;;12.00;5.30;;;18.00;99.90;;;;;;5031245;28;20037;-56
2023/10/09 09:28:09;;;;;;;11.45;5.22;;;18.00;99.90;;;;;;5041486;28;20140;-57
2023/10/09 09:30:37;;;;;;;9.35;4.70;;;18.10;99.90;;;;;;5051718;28;20118;-57
2023/10/09 09:33:40;;;;;;;9.90;4.45;;;18.20;99.90;;;;;;5055302;28;20073;-58
2023/10/09 09:36:07;;;;;;;9.65;4.95;;;18.20;99.90;;;;;;5036194;28;20052;-55
2023/10/09 09:39:35;;;;;;;11.10;5.28;;;18.40;99.90;;;;;;5024747;28;20053;-57
2023/10/09 09:41:33;;;;;;;10.90;5.50;;;18.50;99.90;;;;;;5028706;28;20049;-57
2023/10/09 09:44:00;;;;;;;9.18;4.72;;;18.50;99.90;;;;;;5039849;28;20473;-56
2023/10/09 09:46:38;;;;;;;10.25;4.07;;;18.60;99.90;;;;;;5028174;28;20406;-56
2023/10/09 09:49:07;;;;;;;19.67;7.20;;;18.60;99.90;;;;;;5025288;28;20081;-55
2023/10/09 09:51:34;;;;;;;8.02;4.43;;;18.60;99.90;;;;;;5030945;28;20048;-56
2023/10/09 09:54:09;;;;;;;10.52;4.78;;;18.70;99.90;;;;;;5038191;28;20040;-58
2023/10/09 09:56:38;;;;;;;12.02;5.22;;;18.70;99.90;;;;;;5040874;28;20050;-57
2023/10/09 09:59:08;;;;;;;15.82;5.07;;;18.80;99.90;;;;;;5027476;28;20053;-57
2023/10/09 10:01:36;;;;;;;8.02;4.10;;;18.90;99.90;;;;;;5049005;28;20208;-57
2023/10/09 10:04:11;;;;;;;11.55;4.72;;;19.00;99.90;;;;;;5044045;28;20083;-56
2023/10/09 10:06:39;;;;;;;10.85;4.43;;;19.00;99.90;;;;;;5028527;28;20057;-57
2023/10/09 10:09:07;;;;;;;13.77;4.10;;;19.10;99.90;;;;;;5028709;28;20052;-57
2023/10/09 10:11:42;;;;;;;10.20;4.38;;;19.00;99.90;;;;;;5046261;28;20333;-57
2023/10/09 10:14:11;;;;;;;16.63;4.65;;;19.00;99.90;;;;;;5049298;28;20375;-57
2023/10/09 10:17:16;;;;;;;9.25;4.45;;;19.00;99.90;;;;;;5039129;28;20052;-57
2023/10/09 10:20:00;;;;;;;9.00;3.50;;;19.10;99.90;;;;;;4974486;28;20086;-57
2023/10/09 10:22:28;;;;;;;19.58;4.63;;;19.20;99.90;;;;;;5042317;28;20080;-58
2023/10/09 10:25:02;;;;;;;9.80;4.25;;;19.30;99.90;;;;;;5048115;28;20091;-58
2023/10/09 10:28:00;;;;;;;13.68;4.97;;;19.40;99.90;;;;;;5026408;28;20052;-55
2023/10/09 10:30:33;;;;;;;9.27;4.05;;;19.50;99.90;;;;;;5022212;28;20045;-59
2023/10/09 10:33:12;;;;;;;16.00;5.05;;;19.60;99.90;;;;;;5050581;28;20044;-57
2023/10/09 10:35:46;;;;;;;11.20;5.30;;;19.50;99.90;;;;;;5042847;28;20448;-57
2023/10/09 10:38:21;;;;;;;;;;;19.70;99.90;;;;;;5044232;28;20115;-56
2023/10/09 10:40:56;;;;;;;8.82;4.57;;;19.80;99.90;;;;;;5045740;28;20421;-57
2023/10/09 10:46:37;;;;;;;12.18;4.43;;;19.90;99.90;;;;;;5047843;28;20516;-56
2023/10/09 10:49:00;;;;;;;12.85;4.75;;;19.90;99.90;;;;;;5039134;28;20049;-57
2023/10/09 10:51:39;;;;;;;9.23;4.40;;;20.00;99.90;;;;;;5058141;28;20063;-57
2023/10/09 10:56:57;;;;;;;14.38;5.88;;;20.20;99.90;;;;;;5059858;28;20143;-56
2023/10/09 10:59:25;;;;;;;15.02;4.50;;;20.40;99.90;;;;;;5059288;28;20049;-57
2023/10/09 11:02:22;;;;;;;9.93;4.25;;;20.50;99.90;;;;;;5041842;28;20098;-56
2023/10/09 11:04:53;;;;;;;11.48;4.28;;;20.50;99.90;;;;;;5024985;28;20441;-57
2023/10/09 11:18:16;;;;;;;6.93;3.73;;;20.50;99.90;;;;;;5055403;28;20040;-57
2023/10/09 11:26:23;;;;;;;11.82;3.75;;;20.80;99.90;;;;;;5050710;28;20052;-56
2023/10/09 11:32:14;;;;;;;11.25;4.45;;;20.90;99.90;;;;;;5058566;28;20053;-56
2023/10/09 11:34:45;;;;;;;11.00;3.97;;;20.90;99.90;;;;;;5059410;28;20283;-56
2023/10/09 11:37:12;;;;;;;15.27;4.53;;;20.90;99.90;;;;;;5042255;28;20051;-57
2023/10/09 11:39:55;;;;;;;10.90;4.18;;;21.00;99.90;;;;;;5055249;28;20052;-56
2023/10/09 11:42:48;;;;;;;14.13;4.15;;;21.10;99.90;;;;;;5043953;28;20083;-57
2023/10/09 11:45:24;;;;;;;9.50;4.10;;;21.10;99.90;;;;;;5065202;28;20570;-57
2023/10/09 11:47:59;;;;;;;9.60;4.85;;;21.20;99.90;;;;;;5045469;28;20504;-56
2023/10/09 11:50:51;;;;;;;21.10;5.25;;;21.30;99.90;;;;;;5055346;28;20416;-56
2023/10/09 11:55:48;;;;;;;9.30;3.90;;;21.30;99.90;;;;;;5054679;28;20045;-56
2023/10/09 11:58:22;;;;;;;9.15;4.18;;;21.40;99.90;;;;;;5059470;28;20048;-57
2023/10/09 12:00:56;;;;;;;10.23;4.43;;;21.60;99.90;;;;;;5043436;28;20387;-56
2023/10/09 12:03:30;;;;;;;11.02;4.47;;;21.60;99.90;;;;;;5041621;28;20061;-56
2023/10/09 12:06:05;;;;;;;10.67;4.40;;;21.60;99.90;;;;;;5053961;28;20041;-58
2023/10/09 12:08:32;;;;;;;8.63;3.75;;;21.70;99.90;;;;;;5056338;28;20687;-57
2023/10/09 12:11:08;;;;;;;11.70;4.80;;;21.80;99.90;;;;;;5046446;28;20041;-57
2023/10/09 12:13:38;;;;;;;10.38;4.53;;;21.80;99.90;;;;;;5049026;28;20285;-57
2023/10/09 12:16:10;;;;;;;16.33;4.28;;;21.90;99.90;;;;;;5036331;28;20072;-56
2023/10/09 12:18:40;;;;;;;10.60;4.82;;;22.00;99.90;;;;;;5053057;28;20048;-57
2023/10/09 12:21:07;;;;;;;13.75;4.28;;;22.10;99.90;;;;;;5063114;28;20076;-57
2023/10/09 12:23:37;;;;;;;15.15;4.13;;;22.20;99.90;;;;;;5035289;28;20094;-57
2023/10/09 12:26:04;;;;;;;9.60;3.50;;;22.20;99.90;;;;;;5036057;28;20497;-57
2023/10/09 12:28:34;;;;;;;10.55;4.43;;;22.30;99.90;;;;;;5036572;28;20055;-58
2023/10/09 12:31:01;;;;;;;8.48;4.32;;;22.30;99.90;;;;;;5048221;28;20569;-58
2023/10/09 12:33:28;;;;;;;15.55;4.47;;;22.30;99.90;;;;;;5056071;28;20055;-58
2023/10/09 12:36:00;;;;;;;10.65;4.35;;;22.30;99.90;;;;;;5057347;28;20084;-57
2023/10/09 12:38:33;;;;;;;13.93;4.05;;;22.30;99.90;;;;;;5056495;28;20064;-58
2023/10/09 12:41:19;;;;;;;14.80;4.53;;;22.30;99.90;;;;;;4707686;28;9999919;-59
2023/10/09 12:43:47;;;;;;;9.52;4.40;;;22.30;99.90;;;;;;5048861;28;20466;-57
2023/10/09 12:46:17;;;;;;;12.68;3.78;;;22.30;99.90;;;;;;5035522;28;20103;-57
2023/10/09 12:48:47;;;;;;;8.95;4.07;;;22.30;99.90;;;;;;5054929;28;20057;-57
2023/10/09 12:51:17;;;;;;;12.27;3.58;;;22.50;99.90;;;;;;5042182;28;20068;-57
2023/10/09 12:53:45;;;;;;;10.32;4.57;;;22.60;99.90;;;;;;5057333;28;20076;-58
2023/10/09 12:56:12;;;;;;;8.38;4.20;;;22.70;99.90;;;;;;5060987;28;20067;-58
2023/10/09 12:58:39;;;;;;;11.20;3.90;;;22.80;99.90;;;;;;5058283;28;20064;-58
2023/10/09 13:01:09;;;;;;;10.15;4.43;;;22.90;99.90;;;;;;5054217;28;20045;-57
2023/10/09 13:03:38;;;;;;;9.63;3.88;;;23.00;99.90;;;;;;5060010;28;20333;-57
2023/10/09 13:06:10;;;;;;;10.80;4.40;;;23.10;99.90;;;;;;5056013;28;20049;-58
2023/10/09 13:08:40;;;;;;;9.05;4.60;;;23.20;99.90;;;;;;5050194;28;20041;-57
2023/10/09 13:11:11;;;;;;;14.68;4.65;;;23.20;99.90;;;;;;5045417;28;20496;-58
2023/10/09 13:13:40;;;;;;;7.90;4.55;;;23.30;99.90;;;;;;5036483;28;20056;-59
2023/10/09 13:16:23;;;;;;;8.60;4.15;;;23.30;99.90;;;;;;5039581;28;20044;-57
2023/10/09 13:18:50;;;;;;;;;;;23.30;99.90;;;;;;5049005;28;20041;-57
2023/10/09 13:21:21;;;;;;;6.53;3.78;;;23.40;99.90;;;;;;5033916;28;19935;-58
2023/10/09 13:23:54;;;;;;;9.57;3.47;;;23.40;99.90;;;;;;5047054;28;20056;-58
2023/10/09 13:26:28;;;;;;;15.60;4.23;;;23.50;99.90;;;;;;5056780;28;20105;-58
2023/10/09 13:29:01;;;;;;;7.93;3.63;;;23.60;99.90;;;;;;5049678;28;20048;-57
2023/10/09 13:31:31;;;;;;;10.38;4.88;;;23.60;99.90;;;;;;5059086;28;20122;-58
2023/10/09 13:33:59;;;;;;;15.30;5.60;;;23.60;99.90;;;;;;5056828;28;20045;-57
2023/10/09 13:36:35;;;;;;;9.63;4.22;;;23.60;99.90;;;;;;5058183;28;20193;-56
2023/10/09 13:39:29;;;;;;;11.13;3.70;;;23.70;99.90;;;;;;5052631;28;20049;-57
2023/10/09 13:41:58;;;;;;;10.77;4.85;;;23.80;99.90;;;;;;5056274;28;20044;-57
2023/10/09 13:44:33;;;;;;;10.57;4.07;;;23.70;99.90;;;;;;5051344;28;20053;-57
2023/10/09 13:47:09;;;;;;;11.15;3.60;;;23.70;99.90;;;;;;5048594;28;20128;-56
2023/10/09 13:49:40;;;;;;;12.52;4.00;;;23.70;99.90;;;;;;5044775;28;20048;-57
2023/10/09 13:52:09;;;;;;;14.77;4.72;;;23.80;99.90;;;;;;5058992;28;20048;-57
2023/10/09 13:57:07;;;;;;;16.70;4.70;;;23.90;99.90;;;;;;5057653;28;20055;-58
2023/10/09 13:59:43;;;;;;;14.57;4.88;;;23.90;99.90;;;;;;5036183;28;20106;-56
2023/10/09 14:02:16;;;;;;;10.15;4.32;;;24.00;99.90;;;;;;5056635;28;20044;-57
2023/10/09 14:04:47;;;;;;;19.40;5.05;;;24.00;99.90;;;;;;5035021;28;20048;-57
2023/10/09 14:07:17;;;;;;;16.33;5.22;;;23.90;99.90;;;;;;5038774;28;20496;-58
2023/10/09 14:09:55;;;;;;;9.70;4.22;;;23.80;99.90;;;;;;5060877;28;20082;-58
2023/10/09 14:12:24;;;;;;;11.82;4.03;;;23.80;99.90;;;;;;5056868;28;20079;-58
2023/10/09 14:14:53;;;;;;;8.27;3.60;;;23.90;99.90;;;;;;5060738;28;20204;-57
2023/10/09 14:17:24;;;;;;;16.27;4.40;;;24.00;99.90;;;;;;5064964;28;20048;-58
2023/10/09 14:19:52;;;;;;;9.13;4.55;;;24.20;99.90;;;;;;5062177;28;20580;-58
2023/10/09 14:22:29;;;;;;;14.48;4.43;;;24.30;99.90;;;;;;5055364;28;20655;-60
2023/10/09 14:24:56;;;;;;;13.32;5.35;;;24.40;99.90;;;;;;5062705;28;20439;-58
2023/10/09 14:27:29;;;;;;;9.80;3.92;;;24.40;99.90;;;;;;5036763;28;20338;-58
2023/10/09 14:29:58;;;;;;;11.75;4.15;;;24.50;99.90;;;;;;5062766;28;20501;-58
2023/10/09 14:32:28;;;;;;;10.43;4.30;;;24.60;99.90;;;;;;5037347;28;20045;-57
2023/10/09 14:35:00;;;;;;;16.02;4.68;;;24.80;99.90;;;;;;5039125;28;20075;-57
2023/10/09 14:37:28;;;;;;;7.78;3.60;;;25.00;99.90;;;;;;5039396;28;20312;-59
2023/10/09 14:40:12;;;;;;;12.59;4.27;;;25.10;99.90;;;;;;5036949;28;10001524;-59
2023/10/09 14:42:44;;;;;;;10.90;5.13;;;25.30;99.90;;;;;;5036109;28;20265;-59
2023/10/09 14:45:15;;;;;;;10.48;4.35;;;25.30;99.90;;;;;;5059261;28;20519;-58
2023/10/09 14:47:42;;;;;;;11.43;4.18;;;25.50;99.90;;;;;;5051323;28;20049;-58
2023/10/09 14:50:13;;;;;;;11.27;4.88;;;25.80;99.90;;;;;;5049473;28;20087;-58
2023/10/09 14:52:40;;;;;;;8.32;3.53;;;26.20;99.90;;;;;;5034521;28;20116;-57
2023/10/09 14:55:09;;;;;;;12.82;3.83;;;26.60;99.90;;;;;;5054913;28;20057;-57
2023/10/09 14:57:36;;;;;;;9.70;4.22;;;27.30;99.90;;;;;;5045543;28;20049;-57
2023/10/09 15:00:13;;;;;;;12.35;4.13;;;27.50;99.90;;;;;;5043092;28;20495;-57
2023/10/09 15:02:40;;;;;;;8.65;4.57;;;27.60;99.90;;;;;;5038671;28;20057;-57
2023/10/09 15:05:11;;;;;;;9.52;4.40;;;28.00;99.90;;;;;;5029044;28;20472;-54
2023/10/09 15:07:40;;;;;;;14.15;4.93;;;28.50;99.90;;;;;;5037987;28;20096;-54
2023/10/09 15:10:15;;;;;;;13.17;4.50;;;28.30;99.90;;;;;;5032403;28;20098;-53
2023/10/09 15:12:48;;;;;;;13.93;4.68;;;28.50;99.90;;;;;;5036721;28;20049;-54
2023/10/09 15:15:15;;;;;;;10.63;4.13;;;28.80;99.70;;;;;;5038419;28;20049;-60